createdAt,value
2022-09-30T00:00:53.795Z,27.2
2022-09-30T00:04:03.524Z,24.6
2022-09-30T00:06:55.291Z,25.1
2022-09-30T00:09:43.010Z,26.2
2022-09-30T00:12:32.735Z,25.9
2022-09-30T00:15:20.385Z,27.3
2022-09-30T00:18:08.101Z,26
2022-09-30T00:20:55.688Z,25.5
2022-09-30T00:23:44.261Z,25.8
2022-09-30T00:26:32.928Z,25.3
2022-09-30T00:29:21.277Z,24.5
2022-09-30T00:32:08.905Z,24.7
2022-09-30T00:34:56.468Z,23.6
2022-09-30T00:37:44.100Z,26.6
2022-09-30T00:40:32.291Z,23
2022-09-30T00:43:22.659Z,25.9
2022-09-30T00:46:27.019Z,27.3
2022-09-30T00:49:20.609Z,29.3
2022-09-30T00:52:10.967Z,27.2
2022-09-30T00:54:58.635Z,26.3
2022-09-30T00:57:49.585Z,27.6
2022-09-30T01:00:37.575Z,28.1
2022-09-30T01:03:26.212Z,25.8
2022-09-30T01:06:16.359Z,26.7
2022-09-30T01:09:06.876Z,28.1
2022-09-30T01:11:55.706Z,26.5
2022-09-30T01:14:43.385Z,26.9
2022-09-30T01:17:35.835Z,24.5
2022-09-30T01:20:37.361Z,27.1
2022-09-30T01:23:45.548Z,28
2022-09-30T01:26:49.392Z,26.4
2022-09-30T01:29:49.759Z,25
2022-09-30T01:32:52.205Z,25.9
2022-09-30T01:35:59.452Z,26.7
2022-09-30T01:38:59.756Z,26.5
2022-09-30T01:42:02.368Z,26.6
2022-09-30T01:44:58.889Z,26.2
2022-09-30T01:47:54.450Z,25.6
2022-09-30T01:50:47.242Z,31
2022-09-30T01:53:41.775Z,25.5
2022-09-30T01:56:36.659Z,25.2
2022-09-30T01:59:28.659Z,25.8
2022-09-30T02:02:21.530Z,27.8
2022-09-30T02:05:12.483Z,23.9
2022-09-30T02:08:05.739Z,25.3
2022-09-30T02:11:01.461Z,26.6
2022-09-30T02:13:56.823Z,27.6
2022-09-30T02:16:51.431Z,26.6
2022-09-30T02:19:46.923Z,24.4
2022-09-30T02:22:40.147Z,26.1
2022-09-30T02:25:31.623Z,26
2022-09-30T02:28:22.978Z,27.8
2022-09-30T02:31:15.317Z,27.6
2022-09-30T02:34:05.674Z,25.1
2022-09-30T02:36:58.479Z,26.4
2022-09-30T02:39:52.911Z,26.4
2022-09-30T02:42:49.278Z,28.1
2022-09-30T02:45:36.991Z,26.5
2022-09-30T02:48:32.174Z,25.7
2022-09-30T02:51:29.096Z,28.4
2022-09-30T02:54:26.252Z,28.3
2022-09-30T02:57:19.639Z,26.5
2022-09-30T03:00:15.605Z,27.3
2022-09-30T03:03:03.878Z,27
2022-09-30T03:05:57.609Z,28.7
2022-09-30T03:08:45.168Z,27.5
2022-09-30T03:11:33.223Z,25.8
2022-09-30T03:14:22.061Z,26.9
2022-09-30T03:17:25.624Z,28.4
2022-09-30T03:20:33.423Z,27.6
2022-09-30T03:23:30.577Z,24.1
2022-09-30T03:26:35.970Z,27.3
2022-09-30T03:29:33.212Z,28.7
2022-09-30T03:32:30.268Z,25.4
2022-09-30T03:35:34.646Z,28.6
2022-09-30T03:38:32.111Z,28.4
2022-09-30T03:41:28.971Z,27.8
2022-09-30T03:44:23.424Z,27.7
2022-09-30T03:47:16.346Z,25.8
2022-09-30T03:50:07.042Z,25.5
2022-09-30T03:52:58.149Z,26.5
2022-09-30T03:55:46.040Z,26.9
2022-09-30T03:58:37.484Z,24.5
2022-09-30T04:01:28.679Z,25.7
2022-09-30T04:04:16.424Z,27.3
2022-09-30T04:07:04.563Z,27.1
2022-09-30T04:09:52.754Z,25.2
2022-09-30T04:12:40.933Z,24.8
2022-09-30T04:15:28.736Z,25.8
2022-09-30T04:18:16.533Z,26.7
2022-09-30T04:21:04.083Z,23.8
2022-09-30T04:23:53.447Z,24.4
2022-09-30T04:26:41.498Z,26.7
2022-09-30T04:29:29.189Z,27
2022-09-30T04:32:16.832Z,26.2
2022-09-30T04:35:06.595Z,24
2022-09-30T04:37:54.421Z,23.3
2022-09-30T04:40:42.188Z,25.8
2022-09-30T04:43:29.776Z,26.6
2022-09-30T04:46:19.100Z,24.2
2022-09-30T04:49:09.309Z,25.9
2022-09-30T04:51:57.285Z,25.6
2022-09-30T04:54:45.083Z,27.2
2022-09-30T04:57:32.617Z,28.5
2022-09-30T05:00:20.140Z,24.9
2022-09-30T05:03:09.729Z,26.3
2022-09-30T05:05:57.260Z,27.9
2022-09-30T05:08:46.339Z,26.2
2022-09-30T05:11:35.352Z,26.2
2022-09-30T05:14:26.951Z,25.2
2022-09-30T05:17:15.041Z,25.7
2022-09-30T05:20:03.687Z,26.4
2022-09-30T05:22:55.422Z,26.9
2022-09-30T05:25:43.146Z,22.8
2022-09-30T05:28:31.279Z,23.6
2022-09-30T05:31:18.977Z,25.4
2022-09-30T05:34:06.610Z,25.1
2022-09-30T05:36:54.379Z,24.4
2022-09-30T05:39:41.871Z,22.9
2022-09-30T05:42:29.360Z,22.9
2022-09-30T05:45:17.442Z,25.5
2022-09-30T05:48:05.226Z,28.1
2022-09-30T05:50:52.929Z,24.4
2022-09-30T05:53:42.205Z,23.2
2022-09-30T05:56:30.183Z,24
2022-09-30T05:59:19.204Z,25.8
2022-09-30T06:02:06.856Z,26.8
2022-09-30T06:04:55.324Z,25
2022-09-30T06:07:42.944Z,25
2022-09-30T06:10:30.532Z,25.1
2022-09-30T06:13:19.172Z,28.3
2022-09-30T06:16:06.905Z,25
2022-09-30T06:18:55.857Z,25.9
2022-09-30T06:21:43.966Z,26.3
2022-09-30T06:24:31.746Z,27.1
2022-09-30T06:27:19.412Z,29.2
2022-09-30T06:30:07.174Z,26.1
2022-09-30T06:32:56.683Z,26.2
2022-09-30T06:35:45.991Z,28.2
2022-09-30T06:38:33.620Z,27.7
2022-09-30T06:41:21.811Z,30.5
2022-09-30T06:44:10.870Z,27.5
2022-09-30T06:46:58.546Z,29.2
2022-09-30T06:49:49.531Z,27.9
2022-09-30T06:52:39.184Z,28.9
2022-09-30T06:55:26.790Z,29.7
2022-09-30T06:58:17.315Z,27.5
2022-09-30T07:01:05.947Z,28.5
2022-09-30T07:03:54.761Z,28.5
2022-09-30T07:06:43.116Z,28.5
2022-09-30T07:09:30.812Z,29.3
2022-09-30T07:12:18.419Z,30.1
2022-09-30T07:15:10.228Z,25.8
2022-09-30T07:18:00.572Z,26.1
2022-09-30T07:20:48.227Z,27.2
2022-09-30T07:23:37.571Z,28.1
2022-09-30T07:26:30.321Z,33.8
2022-09-30T07:29:18.136Z,33.7
2022-09-30T07:32:05.823Z,33
2022-09-30T07:34:54.151Z,34.1
2022-09-30T07:37:41.899Z,41.5
2022-09-30T07:40:30.875Z,34.3
2022-09-30T07:43:18.524Z,36.3
2022-09-30T07:46:06.586Z,35.1
2022-09-30T07:48:57.952Z,29.4
2022-09-30T07:51:48.659Z,30.4
2022-09-30T07:54:41.372Z,28.7
2022-09-30T07:57:30.959Z,28.8
2022-09-30T08:00:41.021Z,30.2
2022-09-30T08:03:33.852Z,28.9
2022-09-30T08:06:24.232Z,27
2022-09-30T08:09:13.407Z,26.5
2022-09-30T08:12:03.963Z,27.6
2022-09-30T08:14:51.703Z,27
2022-09-30T08:17:39.424Z,28.2
2022-09-30T08:20:27.108Z,27.6
2022-09-30T08:23:14.721Z,26.2
2022-09-30T08:26:03.464Z,28.1
2022-09-30T08:28:53.906Z,26.7
2022-09-30T08:31:41.483Z,26.6
2022-09-30T08:34:29.540Z,26.3
2022-09-30T08:37:19.965Z,25.3
2022-09-30T08:40:08.506Z,26.2
2022-09-30T08:43:06.379Z,28.4
2022-09-30T08:46:09.546Z,30.2
2022-09-30T08:49:07.551Z,27.1
2022-09-30T08:52:16.013Z,25.7
2022-09-30T08:55:16.879Z,25.9
2022-09-30T08:58:09.224Z,21.5
2022-09-30T09:01:07.172Z,21.6
2022-09-30T09:04:05.792Z,19.9
2022-09-30T09:06:54.786Z,23.2
2022-09-30T09:09:51.393Z,20.3
2022-09-30T09:12:53.112Z,21
2022-09-30T09:15:48.993Z,18.5
2022-09-30T09:18:49.280Z,17.4
2022-09-30T09:21:44.484Z,14.3
2022-09-30T09:24:38.401Z,19.7
2022-09-30T09:30:31.924Z,14.2
2022-09-30T09:33:28.230Z,11.8
2022-09-30T09:36:17.795Z,14.1
2022-09-30T09:39:18.923Z,12.7
2022-09-30T09:42:25.124Z,12.6
2022-09-30T09:45:23.920Z,9.8
2022-09-30T09:48:19.456Z,10.8
2022-09-30T09:51:07.127Z,10.1
2022-09-30T09:54:03.087Z,9.2
2022-09-30T09:56:54.697Z,10.4
2022-09-30T09:59:53.867Z,10.6
2022-09-30T10:02:43.200Z,9.3
2022-09-30T10:05:30.861Z,10.1
2022-09-30T10:08:24.128Z,10.2
2022-09-30T10:11:11.860Z,6.9
2022-09-30T10:14:06.987Z,6.4
2022-09-30T10:17:03.908Z,7.8
2022-09-30T10:20:03.844Z,7.3
2022-09-30T10:23:03.977Z,8.3
2022-09-30T10:26:02.790Z,8.8
2022-09-30T10:29:03.793Z,10.9
2022-09-30T10:32:11.260Z,10.5
2022-09-30T10:34:59.140Z,11.4
2022-09-30T10:37:51.632Z,12.2
2022-09-30T10:40:43.278Z,9.5
2022-09-30T10:43:35.040Z,10.5
2022-09-30T10:46:28.167Z,10.1
2022-09-30T10:49:20.031Z,8.2
2022-09-30T10:52:13.238Z,8.3
2022-09-30T10:55:09.098Z,7.5
2022-09-30T10:58:16.619Z,8.1
2022-09-30T11:01:14.530Z,8.6
2022-09-30T11:04:12.923Z,9.7
2022-09-30T11:07:09.008Z,8.5
2022-09-30T11:10:05.701Z,10.4
2022-09-30T11:13:10.880Z,11.3
2022-09-30T11:16:06.237Z,10.4
2022-09-30T11:19:04.024Z,9.8
2022-09-30T11:21:58.485Z,10.5
2022-09-30T11:25:07.434Z,10
2022-09-30T11:28:01.750Z,9.6
2022-09-30T11:31:08.360Z,9.7
2022-09-30T11:34:08.985Z,10.6
2022-09-30T11:37:16.809Z,9.4
2022-09-30T11:40:17.315Z,8.9
2022-09-30T11:43:19.277Z,6.1
2022-09-30T11:46:18.300Z,3.9
2022-09-30T11:49:23.444Z,4.1
2022-09-30T11:52:29.613Z,5.7
2022-09-30T11:55:26.221Z,5.8
2022-09-30T11:58:40.649Z,6.3
2022-09-30T12:01:35.206Z,6.2
2022-09-30T12:04:28.671Z,5.8
2022-09-30T12:07:21.124Z,5.9
2022-09-30T12:10:25.730Z,6.2
2022-09-30T12:13:18.339Z,6.3
2022-09-30T12:16:11.426Z,5.8
2022-09-30T12:19:05.935Z,5.2
2022-09-30T12:22:02.509Z,4.7
2022-09-30T12:24:59.215Z,4.6
2022-09-30T12:27:56.689Z,5
2022-09-30T12:33:01.784Z,6.1
2022-09-30T12:36:28.973Z,6.5
2022-09-30T12:39:33.772Z,5.7
2022-09-30T12:42:40.595Z,6.4
2022-09-30T12:46:01.442Z,5.7
2022-09-30T12:48:59.362Z,5.5
2022-09-30T12:51:50.911Z,5.3
2022-09-30T12:54:43.364Z,4.1
2022-09-30T12:57:37.526Z,4.2
2022-09-30T13:00:28.430Z,5.1
2022-09-30T13:03:19.535Z,4.8
2022-09-30T13:06:07.226Z,4.4
2022-09-30T13:08:55.029Z,5
2022-09-30T13:12:16.145Z,5
2022-09-30T13:15:12.645Z,4.4
2022-09-30T13:18:26.683Z,5.2
2022-09-30T13:21:47.227Z,4
2022-09-30T13:24:34.832Z,4.4
2022-09-30T13:27:56.034Z,4.5
2022-09-30T13:31:23.726Z,4.4
2022-09-30T13:34:13.247Z,5.3
2022-09-30T13:37:08.579Z,5.2
2022-09-30T13:40:37.811Z,5.7
2022-09-30T13:43:42.830Z,6
2022-09-30T13:46:38.202Z,6.6
2022-09-30T13:49:32.505Z,6.3
2022-09-30T13:52:27.563Z,6.8
2022-09-30T13:55:20.196Z,6.3
2022-09-30T13:58:12.176Z,6.3
2022-09-30T14:01:20.605Z,7.1
2022-09-30T14:04:20.801Z,6.1
2022-09-30T14:07:27.680Z,6.8
2022-09-30T14:10:28.765Z,6.6
2022-09-30T14:13:32.148Z,7.6
2022-09-30T14:16:34.151Z,8.6
2022-09-30T14:19:59.960Z,8.4
2022-09-30T14:23:00.922Z,8
2022-09-30T14:25:48.742Z,7.9
2022-09-30T14:28:49.240Z,7.7
2022-09-30T14:31:45.854Z,6.9
2022-09-30T14:34:33.805Z,7.1
2022-09-30T14:37:22.231Z,8.7
2022-09-30T14:40:14.875Z,7.3
2022-09-30T14:43:06.268Z,7.4
2022-09-30T14:46:00.366Z,8.2
2022-09-30T14:48:53.742Z,8.2
2022-09-30T14:51:46.610Z,8.8
2022-09-30T14:54:34.876Z,8.9
2022-09-30T14:57:32.784Z,8.7
2022-09-30T15:00:20.494Z,9.5
2022-09-30T15:03:14.630Z,9
2022-09-30T15:06:03.189Z,9.1
2022-09-30T15:09:02.196Z,7.7
2022-09-30T15:11:53.489Z,8.7
2022-09-30T15:14:43.010Z,9.6
2022-09-30T15:17:32.338Z,8.8
2022-09-30T15:20:22.597Z,8.9
2022-09-30T15:23:15.152Z,9.2
2022-09-30T15:26:09.545Z,9
2022-09-30T15:28:59.224Z,9.5
2022-09-30T15:31:50.289Z,9.3
2022-09-30T15:34:45.648Z,9.1
2022-09-30T15:37:33.903Z,9.4
2022-09-30T15:40:21.785Z,9.3
2022-09-30T15:43:41.472Z,9.7
2022-09-30T15:46:35.418Z,9.1
2022-09-30T15:49:25.074Z,11.4
2022-09-30T15:52:19.981Z,9.5
2022-09-30T15:55:22.352Z,9.1
2022-09-30T15:58:26.383Z,9
2022-09-30T16:01:22.183Z,9.1
2022-09-30T16:04:12.235Z,9
2022-09-30T16:07:09.488Z,9.9
2022-09-30T16:10:04.084Z,10.2
2022-09-30T16:13:03.848Z,9.2
2022-09-30T16:15:52.464Z,8.9
2022-09-30T16:18:42.932Z,9.3
2022-09-30T16:21:31.220Z,9.9
2022-09-30T16:24:29.827Z,9.4
2022-09-30T16:27:34.208Z,10.1
2022-09-30T16:30:23.404Z,9.4
2022-09-30T16:33:11.703Z,10.6
2022-09-30T16:36:00.823Z,8.9
2022-09-30T16:38:48.604Z,8.6
2022-09-30T16:41:36.283Z,9.2
2022-09-30T16:44:23.906Z,10.8
2022-09-30T16:47:11.541Z,13
2022-09-30T16:50:01.653Z,16.8
2022-09-30T16:53:02.363Z,15.9
2022-09-30T16:55:50.142Z,13.9
2022-09-30T16:58:38.074Z,13.7
2022-09-30T17:01:27.344Z,14.6
2022-09-30T17:04:16.620Z,16.7
2022-09-30T17:07:05.594Z,18.9
2022-09-30T17:09:59.150Z,21
2022-09-30T17:12:46.779Z,30.9
2022-09-30T17:15:35.038Z,48.1
2022-09-30T17:18:22.710Z,65.4
2022-09-30T17:21:10.673Z,72.2
2022-09-30T17:23:58.382Z,74.4
2022-09-30T17:26:47.946Z,69.6
2022-09-30T17:29:41.814Z,59.5
2022-09-30T17:32:31.120Z,54.7
2022-09-30T17:35:19.036Z,49.3
2022-09-30T17:38:07.224Z,42.4
2022-09-30T17:40:57.224Z,40.4
2022-09-30T17:44:17.600Z,38.2
2022-09-30T17:47:05.887Z,34.1
2022-09-30T17:49:53.538Z,30.7
2022-09-30T17:52:41.435Z,29.7
2022-09-30T17:55:29.178Z,32.8
2022-09-30T17:58:18.650Z,31.7
2022-09-30T18:01:06.833Z,32.7
2022-09-30T18:03:55.857Z,31.5
2022-09-30T18:06:44.992Z,29.2
2022-09-30T18:09:34.039Z,29.2
2022-09-30T18:12:24.053Z,29.4
2022-09-30T18:15:12.461Z,30.1
2022-09-30T18:18:01.193Z,28.6
2022-09-30T18:20:50.071Z,27.5
2022-09-30T18:23:38.490Z,26.2
2022-09-30T18:26:30.542Z,27
2022-09-30T18:29:22.638Z,26.9
2022-09-30T18:32:13.694Z,26.8
2022-09-30T18:35:03.751Z,26.1
2022-09-30T18:37:56.959Z,26
2022-09-30T18:40:45.127Z,27.9
2022-09-30T18:43:34.793Z,28.4
2022-09-30T18:46:24.282Z,29.5
2022-09-30T18:49:13.534Z,28.7
2022-09-30T18:52:02.701Z,25.8
2022-09-30T18:54:50.693Z,26.2
2022-09-30T18:57:39.220Z,27.4
2022-09-30T19:00:27.920Z,26.5
2022-09-30T19:03:16.976Z,27.3
2022-09-30T19:06:09.200Z,27.3
2022-09-30T19:08:57.272Z,26.1
2022-09-30T19:11:46.231Z,23.6
2022-09-30T19:14:37.601Z,26.6
2022-09-30T19:17:30.132Z,25.7
2022-09-30T19:20:18.522Z,25.5
2022-09-30T19:23:08.365Z,28.3
2022-09-30T19:25:56.780Z,29.7
2022-09-30T19:28:48.777Z,30.3
2022-09-30T19:31:38.997Z,31.5
2022-09-30T19:34:32.210Z,30.6
2022-09-30T19:37:27.282Z,29.2
2022-09-30T19:40:21.349Z,29.7
2022-09-30T19:43:10.881Z,34.3
2022-09-30T19:46:04.244Z,42.6
2022-09-30T19:48:57.577Z,42.7
2022-09-30T19:51:46.275Z,40.6
2022-09-30T19:54:40.774Z,34.7
2022-09-30T19:57:31.724Z,32.4
2022-09-30T20:00:21.690Z,27.7
2022-09-30T20:03:11.783Z,27.5
2022-09-30T20:06:01.912Z,26.7
2022-09-30T20:08:53.811Z,23.3
2022-09-30T20:11:44.861Z,22.7
2022-09-30T20:14:32.488Z,22.7
2022-09-30T20:17:52.114Z,22.7
2022-09-30T20:20:40.332Z,22.9
2022-09-30T20:23:30.318Z,20.7
2022-09-30T20:26:23.518Z,19.5
2022-09-30T20:29:12.314Z,21.4
2022-09-30T20:32:05.132Z,21.1
2022-09-30T20:34:52.913Z,22.9
2022-09-30T20:37:41.402Z,25
2022-09-30T20:40:29.129Z,25.8
2022-09-30T20:43:19.076Z,26.6
2022-09-30T20:46:06.849Z,25.5
2022-09-30T20:48:57.297Z,24.3
2022-09-30T20:51:45.905Z,22.8
2022-09-30T20:54:34.411Z,22.2
2022-09-30T20:57:22.993Z,19.9
2022-09-30T21:00:10.801Z,21.9
2022-09-30T21:03:00.982Z,20.7
2022-09-30T21:05:49.284Z,19.5
2022-09-30T21:08:38.191Z,19.6
2022-09-30T21:11:27.727Z,18.2
2022-09-30T21:14:15.445Z,16.8
2022-09-30T21:17:04.080Z,17.7
2022-09-30T21:19:52.911Z,18.3
2022-09-30T21:22:40.349Z,17.7
2022-09-30T21:25:28.053Z,18
2022-09-30T21:28:15.906Z,18.1
2022-09-30T21:31:04.750Z,17.9
2022-09-30T21:34:05.199Z,17.2
2022-09-30T21:36:57.146Z,18.6
2022-09-30T21:39:44.930Z,18.7
2022-09-30T21:42:33.054Z,19
2022-09-30T21:45:21.111Z,18.5
2022-09-30T21:48:09.839Z,17.9
2022-09-30T21:50:57.969Z,17.4
2022-09-30T21:53:45.739Z,18.6
2022-09-30T21:56:33.486Z,19.7
2022-09-30T21:59:21.697Z,18.7
2022-09-30T22:02:10.131Z,17.8
2022-09-30T22:04:57.990Z,17.8
2022-09-30T22:07:45.630Z,19.3
2022-09-30T22:10:33.322Z,17.8
2022-09-30T22:13:21.154Z,20.3
2022-09-30T22:16:09.903Z,19.5
2022-09-30T22:18:59.827Z,19.4
2022-09-30T22:21:49.822Z,18.9
2022-09-30T22:24:37.521Z,20.4
2022-09-30T22:27:25.693Z,21
2022-09-30T22:30:13.341Z,18.8
2022-09-30T22:33:01.457Z,18.4
2022-09-30T22:36:21.192Z,21
2022-09-30T22:39:40.919Z,20.6
2022-09-30T22:42:28.559Z,21
2022-09-30T22:45:16.561Z,18.9
2022-09-30T22:48:04.863Z,20
2022-09-30T22:50:52.445Z,21
2022-09-30T22:53:40.121Z,21.4
2022-09-30T22:56:27.985Z,22.5
2022-09-30T22:59:16.695Z,20.2
2022-09-30T23:02:06.252Z,20.7
2022-09-30T23:04:54.051Z,22.1
2022-09-30T23:07:41.703Z,21.2
2022-09-30T23:10:29.375Z,22.8
2022-09-30T23:13:17.207Z,19.9
2022-09-30T23:16:05.423Z,20.5
2022-09-30T23:18:54.613Z,19.9
2022-09-30T23:21:42.930Z,21.8
2022-09-30T23:24:30.703Z,22.3
2022-09-30T23:27:18.424Z,21.7
2022-09-30T23:30:06.187Z,20.2
2022-09-30T23:32:54.405Z,21.2
2022-09-30T23:35:42.138Z,22.6
2022-09-30T23:38:30.849Z,21.3
2022-09-30T23:41:18.974Z,19.8
2022-09-30T23:44:06.972Z,21.2
2022-09-30T23:46:54.737Z,21
2022-09-30T23:50:13.881Z,22.2
2022-09-30T23:53:01.740Z,24.6
2022-09-30T23:55:49.442Z,22.2
2022-09-30T23:58:41.082Z,23.3
